createdAt,value
2023-03-23T16:00:37.836Z,98204.55
2023-03-23T16:05:40.004Z,98204.39
2023-03-23T16:10:43.388Z,98207.89
2023-03-23T16:15:47.599Z,98215.28
2023-03-23T16:20:50.766Z,98213.27
2023-03-23T16:25:52.762Z,98210.95
2023-03-23T16:30:54.603Z,98221.43
2023-03-23T16:35:57.569Z,98231.33
2023-03-23T16:40:59.377Z,98230.63
2023-03-23T16:46:01.201Z,98232.25
2023-03-23T16:51:02.851Z,98227.02
2023-03-23T16:56:04.978Z,98224.17
2023-03-23T17:01:07.020Z,98227.69
2023-03-23T17:06:09.007Z,98228.71
2023-03-23T17:11:11.395Z,98233.81
2023-03-23T17:16:13.488Z,98231.52
2023-03-23T17:21:15.215Z,98231.91
2023-03-23T17:26:16.895Z,98237.58
2023-03-23T17:31:18.744Z,98240.51
2023-03-23T17:36:20.584Z,98245.88
2023-03-23T17:41:22.557Z,98247.20
2023-03-23T17:46:25.016Z,98237.40
2023-03-23T17:51:26.830Z,98238.09
2023-03-23T17:56:28.681Z,98247.60
2023-03-23T18:01:30.722Z,98248.61
2023-03-23T18:06:33.204Z,98251.83
2023-03-23T18:11:35.358Z,98262.11
2023-03-23T18:16:37.564Z,98275.05
2023-03-23T18:21:40.469Z,98287.17
2023-03-23T18:26:42.235Z,98283.10
2023-03-23T18:31:44.539Z,98279.43
2023-03-23T18:36:47.739Z,98276.94
2023-03-23T18:41:49.607Z,98274.87
2023-03-23T18:46:51.594Z,98279.02
2023-03-23T18:51:54.458Z,98284.14
2023-03-23T18:57:00.368Z,98279.96
2023-03-23T19:02:03.573Z,98285.36
2023-03-23T19:07:05.929Z,98291.63
2023-03-23T19:12:12.185Z,98290.27
2023-03-23T19:17:14.239Z,98282.73
2023-03-23T19:22:15.927Z,98276.94
2023-03-23T19:27:19.204Z,98274.97
2023-03-23T19:32:21.783Z,98281.02
2023-03-23T19:37:23.682Z,98282.77
2023-03-23T19:42:25.749Z,98282.48
2023-03-23T19:47:28.195Z,98287.67
2023-03-23T19:52:33.089Z,98288.49
2023-03-23T19:57:35.288Z,98296.08
2023-03-23T20:02:37.444Z,98301.31
2023-03-23T20:07:41.730Z,98309.90
2023-03-23T20:12:45.608Z,98329.92
2023-03-23T20:17:48.393Z,98337.81
2023-03-23T20:22:53.325Z,98344.45
2023-03-23T20:27:56.181Z,98342.92
2023-03-23T20:33:00.783Z,98345.37
2023-03-23T20:38:02.499Z,98347.64
2023-03-23T20:43:04.524Z,98350.59
2023-03-23T20:48:06.527Z,98346.98
2023-03-23T20:53:08.708Z,98343.11
2023-03-23T20:58:10.673Z,98341.74
2023-03-23T21:03:14.278Z,98333.79
2023-03-23T21:08:18.207Z,98329.90
2023-03-23T21:13:20.010Z,98332.91
2023-03-23T21:18:22.206Z,98335.30
2023-03-23T21:23:26.661Z,98343.81
2023-03-23T21:28:29.022Z,98353.27
2023-03-23T21:33:31.074Z,98357.46
2023-03-23T21:38:33.834Z,98355.19
2023-03-23T21:43:36.445Z,98347.41
2023-03-23T21:48:38.878Z,98342.56
2023-03-23T21:53:42.165Z,98341.23
2023-03-23T21:58:43.934Z,98336.20
2023-03-23T22:03:46.213Z,98337.13
2023-03-23T22:08:49.221Z,98335.84
2023-03-23T22:13:56.557Z,98334.55
2023-03-23T22:19:00.375Z,98342.95
2023-03-23T22:24:02.587Z,98346.17
2023-03-23T22:29:05.377Z,98343.98
2023-03-23T22:34:07.494Z,98341.56
2023-03-23T22:39:09.864Z,98336.02
2023-03-23T22:44:15.674Z,98330.58
2023-03-23T22:49:37.534Z,98328.42
2023-03-23T22:54:59.657Z,98333.27
2023-03-23T23:00:07.569Z,98331.21
2023-03-23T23:05:13.772Z,98334.31
2023-03-23T23:10:15.617Z,98335.75
2023-03-23T23:15:17.324Z,98339.90
2023-03-23T23:20:19.961Z,98344.77
2023-03-23T23:25:22.381Z,98349.84
2023-03-23T23:30:24.420Z,98355.48
2023-03-23T23:35:27.121Z,98355.08
2023-03-23T23:40:28.860Z,98350.20
2023-03-23T23:45:31.609Z,98344.80
2023-03-23T23:50:33.860Z,98343.92
2023-03-23T23:55:35.523Z,98344.30
